sensor_id;sensor_type;location;lat;lon;timestamp;pressure;altitude;pressure_sealevel;temperature;humidity
44103;BME280;29769;42.178;24.742;2023-03-14T00:00:37;100148.22;;;0.59;100.00
44103;BME280;29769;42.178;24.742;2023-03-14T00:03:22;100149.03;;;0.57;100.00
44103;BME280;29769;42.178;24.742;2023-03-14T00:06:07;100151.25;;;0.46;100.00
44103;BME280;29769;42.178;24.742;2023-03-14T00:08:52;100145.25;;;0.47;100.00
44103;BME280;29769;42.178;24.742;2023-03-14T00:11:38;100129.72;;;0.47;100.00
44103;BME280;29769;42.178;24.742;2023-03-14T00:14:23;100116.72;;;0.45;100.00
44103;BME280;29769;42.178;24.742;2023-03-14T00:17:08;100135.41;;;0.62;100.00
44103;BME280;29769;42.178;24.742;2023-03-14T00:19:53;100127.72;;;0.65;100.00
44103;BME280;29769;42.178;24.742;2023-03-14T00:22:38;100124.09;;;0.60;100.00
44103;BME280;29769;42.178;24.742;2023-03-14T00:25:23;100118.31;;;0.67;100.00
44103;BME280;29769;42.178;24.742;2023-03-14T00:28:08;100115.38;;;0.85;100.00
44103;BME280;29769;42.178;24.742;2023-03-14T00:30:53;100118.81;;;0.84;100.00
44103;BME280;29769;42.178;24.742;2023-03-14T00:33:38;100101.75;;;0.62;100.00
44103;BME280;29769;42.178;24.742;2023-03-14T00:36:24;100110.25;;;0.58;100.00
44103;BME280;29769;42.178;24.742;2023-03-14T00:39:09;100109.91;;;0.48;100.00
44103;BME280;29769;42.178;24.742;2023-03-14T00:41:53;100102.06;;;0.44;100.00
44103;BME280;29769;42.178;24.742;2023-03-14T00:44:38;100101.19;;;0.44;100.00
44103;BME280;29769;42.178;24.742;2023-03-14T00:47:25;100099.56;;;0.48;100.00
44103;BME280;29769;42.178;24.742;2023-03-14T00:50:11;100096.56;;;0.62;100.00
44103;BME280;29769;42.178;24.742;2023-03-14T00:52:57;100095.03;;;0.69;100.00
44103;BME280;29769;42.178;24.742;2023-03-14T00:55:43;100085.56;;;0.69;100.00
44103;BME280;29769;42.178;24.742;2023-03-14T00:58:28;100077.78;;;0.69;100.00
44103;BME280;29769;42.178;24.742;2023-03-14T01:01:17;100080.47;;;0.72;100.00
44103;BME280;29769;42.178;24.742;2023-03-14T01:04:03;100068.38;;;0.71;100.00
44103;BME280;29769;42.178;24.742;2023-03-14T01:06:48;100075.16;;;0.68;100.00
44103;BME280;29769;42.178;24.742;2023-03-14T01:09:33;100069.13;;;0.69;100.00
44103;BME280;29769;42.178;24.742;2023-03-14T01:12:18;100064.81;;;0.68;100.00
44103;BME280;29769;42.178;24.742;2023-03-14T01:15:03;100059.09;;;0.79;100.00
44103;BME280;29769;42.178;24.742;2023-03-14T01:17:49;100065.22;;;0.81;100.00
44103;BME280;29769;42.178;24.742;2023-03-14T01:20:36;100058.44;;;0.86;100.00
44103;BME280;29769;42.178;24.742;2023-03-14T01:23:21;100051.75;;;0.93;100.00
44103;BME280;29769;42.178;24.742;2023-03-14T01:26:09;100053.56;;;0.97;100.00
44103;BME280;29769;42.178;24.742;2023-03-14T01:28:56;100056.25;;;1.00;100.00
44103;BME280;29769;42.178;24.742;2023-03-14T01:31:41;100057.31;;;1.07;100.00
44103;BME280;29769;42.178;24.742;2023-03-14T01:34:26;100058.25;;;1.10;100.00
44103;BME280;29769;42.178;24.742;2023-03-14T01:37:11;100055.72;;;1.12;100.00
44103;BME280;29769;42.178;24.742;2023-03-14T01:39:57;100054.91;;;1.14;100.00
44103;BME280;29769;42.178;24.742;2023-03-14T01:43:06;100058.25;;;1.09;100.00
44103;BME280;29769;42.178;24.742;2023-03-14T01:52:07;100050.84;;;0.93;100.00
44103;BME280;29769;42.178;24.742;2023-03-14T01:55:03;100040.41;;;0.89;100.00
44103;BME280;29769;42.178;24.742;2023-03-14T01:57:51;100040.91;;;0.76;100.00
44103;BME280;29769;42.178;24.742;2023-03-14T02:00:38;100031.84;;;0.62;100.00
44103;BME280;29769;42.178;24.742;2023-03-14T02:03:25;100034.31;;;0.58;100.00
44103;BME280;29769;42.178;24.742;2023-03-14T02:06:14;100028.88;;;0.50;100.00
44103;BME280;29769;42.178;24.742;2023-03-14T02:09:02;100020.66;;;0.35;100.00
44103;BME280;29769;42.178;24.742;2023-03-14T02:11:51;100030.28;;;0.39;100.00
44103;BME280;29769;42.178;24.742;2023-03-14T02:14:59;100033.78;;;0.41;100.00
44103;BME280;29769;42.178;24.742;2023-03-14T02:18:07;100031.16;;;0.39;100.00
44103;BME280;29769;42.178;24.742;2023-03-14T02:21:17;100026.19;;;0.47;100.00
44103;BME280;29769;42.178;24.742;2023-03-14T02:24:19;100019.47;;;0.52;100.00
44103;BME280;29769;42.178;24.742;2023-03-14T02:27:16;100023.75;;;0.52;100.00
44103;BME280;29769;42.178;24.742;2023-03-14T02:30:10;100025.97;;;0.39;100.00
44103;BME280;29769;42.178;24.742;2023-03-14T02:33:00;100030.06;;;0.33;100.00
44103;BME280;29769;42.178;24.742;2023-03-14T02:35:56;100032.66;;;0.33;100.00
44103;BME280;29769;42.178;24.742;2023-03-14T02:39:08;100027.31;;;0.27;100.00
44103;BME280;29769;42.178;24.742;2023-03-14T02:41:59;100020.94;;;0.16;100.00
44103;BME280;29769;42.178;24.742;2023-03-14T02:45:53;100021.38;;;0.03;100.00
44103;BME280;29769;42.178;24.742;2023-03-14T02:51:00;100034.25;;;0.01;100.00
44103;BME280;29769;42.178;24.742;2023-03-14T02:53:46;100032.38;;;-0.05;100.00
44103;BME280;29769;42.178;24.742;2023-03-14T02:56:31;100019.91;;;-0.16;100.00
44103;BME280;29769;42.178;24.742;2023-03-14T02:59:18;100041.56;;;-0.13;100.00
44103;BME280;29769;42.178;24.742;2023-03-14T03:02:16;100037.84;;;-0.21;100.00
44103;BME280;29769;42.178;24.742;2023-03-14T03:05:01;100036.81;;;-0.26;100.00
44103;BME280;29769;42.178;24.742;2023-03-14T03:07:46;100041.97;;;-0.27;100.00
44103;BME280;29769;42.178;24.742;2023-03-14T03:10:31;100031.66;;;-0.51;100.00
44103;BME280;29769;42.178;24.742;2023-03-14T03:13:17;100048.88;;;-0.52;100.00
44103;BME280;29769;42.178;24.742;2023-03-14T03:16:04;100042.34;;;-0.40;100.00
44103;BME280;29769;42.178;24.742;2023-03-14T03:18:49;100041.84;;;-0.30;100.00
44103;BME280;29769;42.178;24.742;2023-03-14T03:21:35;100030.03;;;-0.22;100.00
44103;BME280;29769;42.178;24.742;2023-03-14T03:24:19;100035.56;;;-0.12;100.00
44103;BME280;29769;42.178;24.742;2023-03-14T03:27:04;100035.66;;;-0.09;100.00
44103;BME280;29769;42.178;24.742;2023-03-14T03:29:49;100028.41;;;-0.20;100.00
44103;BME280;29769;42.178;24.742;2023-03-14T03:32:34;100041.06;;;-0.28;100.00
44103;BME280;29769;42.178;24.742;2023-03-14T03:35:19;100042.13;;;-0.23;100.00
44103;BME280;29769;42.178;24.742;2023-03-14T03:38:04;100032.69;;;-0.21;100.00
44103;BME280;29769;42.178;24.742;2023-03-14T03:40:49;100036.06;;;-0.23;100.00
44103;BME280;29769;42.178;24.742;2023-03-14T03:43:35;100036.16;;;-0.20;100.00
44103;BME280;29769;42.178;24.742;2023-03-14T03:46:22;100033.47;;;-0.23;100.00
44103;BME280;29769;42.178;24.742;2023-03-14T03:49:06;100033.94;;;-0.08;100.00
44103;BME280;29769;42.178;24.742;2023-03-14T03:51:52;100036.81;;;-0.01;100.00
44103;BME280;29769;42.178;24.742;2023-03-14T03:54:37;100029.94;;;0.02;100.00
44103;BME280;29769;42.178;24.742;2023-03-14T03:57:21;100032.53;;;0.02;100.00
44103;BME280;29769;42.178;24.742;2023-03-14T04:00:07;100028.19;;;0.00;100.00
44103;BME280;29769;42.178;24.742;2023-03-14T04:02:58;100019.66;;;0.03;100.00
44103;BME280;29769;42.178;24.742;2023-03-14T04:05:44;100022.03;;;-0.05;100.00
44103;BME280;29769;42.178;24.742;2023-03-14T04:08:29;100017.16;;;0.06;100.00
44103;BME280;29769;42.178;24.742;2023-03-14T04:11:15;100015.81;;;0.17;100.00
44103;BME280;29769;42.178;24.742;2023-03-14T04:14:19;100017.22;;;0.08;100.00
44103;BME280;29769;42.178;24.742;2023-03-14T04:17:05;100021.09;;;-0.07;100.00
44103;BME280;29769;42.178;24.742;2023-03-14T04:19:50;100009.72;;;-0.12;100.00
44103;BME280;29769;42.178;24.742;2023-03-14T04:22:39;100012.22;;;-0.13;100.00
44103;BME280;29769;42.178;24.742;2023-03-14T04:25:24;100003.34;;;-0.23;100.00
44103;BME280;29769;42.178;24.742;2023-03-14T04:28:13;100014.66;;;-0.19;100.00
44103;BME280;29769;42.178;24.742;2023-03-14T04:31:06;99994.25;;;-0.10;100.00
44103;BME280;29769;42.178;24.742;2023-03-14T04:33:51;100003.06;;;-0.04;100.00
44103;BME280;29769;42.178;24.742;2023-03-14T04:36:43;99996.56;;;0.09;100.00
44103;BME280;29769;42.178;24.742;2023-03-14T04:39:33;99997.44;;;0.10;100.00
44103;BME280;29769;42.178;24.742;2023-03-14T04:42:34;99999.41;;;0.17;100.00
44103;BME280;29769;42.178;24.742;2023-03-14T04:45:19;99995.28;;;0.23;100.00
44103;BME280;29769;42.178;24.742;2023-03-14T04:48:04;99994.00;;;0.37;100.00
44103;BME280;29769;42.178;24.742;2023-03-14T04:50:49;100002.16;;;0.50;100.00
44103;BME280;29769;42.178;24.742;2023-03-14T04:53:35;100002.09;;;0.78;100.00
44103;BME280;29769;42.178;24.742;2023-03-14T04:56:24;100002.97;;;1.08;100.00
44103;BME280;29769;42.178;24.742;2023-03-14T04:59:10;100012.66;;;1.48;100.00
44103;BME280;29769;42.178;24.742;2023-03-14T05:01:58;100013.59;;;1.85;100.00
44103;BME280;29769;42.178;24.742;2023-03-14T05:04:56;100012.66;;;2.18;100.00
44103;BME280;29769;42.178;24.742;2023-03-14T05:08:01;100019.75;;;2.64;96.47
44103;BME280;29769;42.178;24.742;2023-03-14T05:11:06;100022.50;;;3.14;90.15
44103;BME280;29769;42.178;24.742;2023-03-14T05:14:09;100020.63;;;3.52;86.09
44103;BME280;29769;42.178;24.742;2023-03-14T05:17:16;100023.13;;;3.95;82.65
44103;BME280;29769;42.178;24.742;2023-03-14T05:20:36;100022.28;;;4.55;78.10
44103;BME280;29769;42.178;24.742;2023-03-14T05:23:40;100014.28;;;5.06;73.14
44103;BME280;29769;42.178;24.742;2023-03-14T05:26:42;100017.41;;;5.53;70.23
44103;BME280;29769;42.178;24.742;2023-03-14T05:29:46;100026.72;;;6.17;67.21
44103;BME280;29769;42.178;24.742;2023-03-14T05:32:50;100022.69;;;6.66;62.31
44103;BME280;29769;42.178;24.742;2023-03-14T05:35:54;100034.09;;;6.76;61.85
44103;BME280;29769;42.178;24.742;2023-03-14T05:39:07;100030.66;;;6.88;60.36
44103;BME280;29769;42.178;24.742;2023-03-14T05:42:18;100023.84;;;7.34;58.99
44103;BME280;29769;42.178;24.742;2023-03-14T05:45:04;100022.22;;;7.72;57.53
44103;BME280;29769;42.178;24.742;2023-03-14T05:48:13;100013.47;;;8.16;55.36
44103;BME280;29769;42.178;24.742;2023-03-14T05:51:08;100026.56;;;7.78;57.13
44103;BME280;29769;42.178;24.742;2023-03-14T05:54:16;100029.19;;;7.67;58.24
44103;BME280;29769;42.178;24.742;2023-03-14T05:57:23;100022.22;;;8.02;55.98
44103;BME280;29769;42.178;24.742;2023-03-14T06:00:28;100023.09;;;8.58;54.32
44103;BME280;29769;42.178;24.742;2023-03-14T06:03:30;100025.69;;;8.67;53.36
44103;BME280;29769;42.178;24.742;2023-03-14T06:06:14;100019.44;;;9.01;52.99
44103;BME280;29769;42.178;24.742;2023-03-14T06:09:01;100011.28;;;9.54;50.75
44103;BME280;29769;42.178;24.742;2023-03-14T06:11:49;100020.22;;;9.24;50.48
44103;BME280;29769;42.178;24.742;2023-03-14T06:14:35;100016.97;;;8.45;51.95
44103;BME280;29769;42.178;24.742;2023-03-14T06:17:20;100011.72;;;8.31;53.38
44103;BME280;29769;42.178;24.742;2023-03-14T06:20:19;100008.22;;;8.14;53.50
44103;BME280;29769;42.178;24.742;2023-03-14T06:23:05;100007.38;;;8.32;54.36
44103;BME280;29769;42.178;24.742;2023-03-14T06:25:50;100001.88;;;9.18;52.00
44103;BME280;29769;42.178;24.742;2023-03-14T06:28:35;99995.50;;;9.60;51.54
44103;BME280;29769;42.178;24.742;2023-03-14T06:31:22;99995.25;;;9.95;50.05
44103;BME280;29769;42.178;24.742;2023-03-14T06:34:12;99996.16;;;10.84;48.34
44103;BME280;29769;42.178;24.742;2023-03-14T06:36:57;99987.91;;;11.77;45.85
44103;BME280;29769;42.178;24.742;2023-03-14T06:39:42;99989.38;;;11.95;44.34
44103;BME280;29769;42.178;24.742;2023-03-14T06:42:37;99993.44;;;12.65;42.80
44103;BME280;29769;42.178;24.742;2023-03-14T06:45:22;99985.53;;;13.49;40.68
44103;BME280;29769;42.178;24.742;2023-03-14T06:48:07;99985.00;;;14.09;39.43
44103;BME280;29769;42.178;24.742;2023-03-14T06:50:58;99987.41;;;14.53;38.17
44103;BME280;29769;42.178;24.742;2023-03-14T06:53:42;99979.50;;;15.15;37.83
44103;BME280;29769;42.178;24.742;2023-03-14T06:56:27;99981.06;;;14.91;37.92
44103;BME280;29769;42.178;24.742;2023-03-14T06:59:14;99957.78;;;14.72;37.86
44103;BME280;29769;42.178;24.742;2023-03-14T07:02:00;99970.41;;;14.26;37.79
44103;BME280;29769;42.178;24.742;2023-03-14T07:04:44;99972.97;;;14.65;37.38
44103;BME280;29769;42.178;24.742;2023-03-14T07:07:30;99960.47;;;15.01;36.97
44103;BME280;29769;42.178;24.742;2023-03-14T07:10:15;99961.06;;;15.10;37.15
44103;BME280;29769;42.178;24.742;2023-03-14T07:13:00;99955.66;;;15.13;36.30
44103;BME280;29769;42.178;24.742;2023-03-14T07:15:48;99949.38;;;15.47;35.62
44103;BME280;29769;42.178;24.742;2023-03-14T07:18:34;99942.75;;;16.14;35.04
44103;BME280;29769;42.178;24.742;2023-03-14T07:21:22;99930.88;;;16.51;34.06
44103;BME280;29769;42.178;24.742;2023-03-14T07:24:07;99930.47;;;17.32;32.62
44103;BME280;29769;42.178;24.742;2023-03-14T07:26:52;99931.84;;;17.66;32.16
44103;BME280;29769;42.178;24.742;2023-03-14T07:29:36;99925.41;;;18.55;30.93
44103;BME280;29769;42.178;24.742;2023-03-14T07:32:22;99920.38;;;19.07;29.67
44103;BME280;29769;42.178;24.742;2023-03-14T07:35:07;99923.66;;;19.51;29.00
44103;BME280;29769;42.178;24.742;2023-03-14T07:37:55;99925.78;;;19.80;28.67
44103;BME280;29769;42.178;24.742;2023-03-14T07:40:49;99920.94;;;20.06;28.43
44103;BME280;29769;42.178;24.742;2023-03-14T07:43:33;99913.03;;;20.21;27.57
44103;BME280;29769;42.178;24.742;2023-03-14T07:46:19;99913.63;;;19.92;27.89
44103;BME280;29769;42.178;24.742;2023-03-14T07:49:04;99902.19;;;20.41;27.50
44103;BME280;29769;42.178;24.742;2023-03-14T07:51:49;99898.31;;;20.97;26.80
44103;BME280;29769;42.178;24.742;2023-03-14T07:54:33;99895.84;;;20.44;27.17
44103;BME280;29769;42.178;24.742;2023-03-14T07:57:18;99897.59;;;21.26;26.37
44103;BME280;29769;42.178;24.742;2023-03-14T08:00:03;99897.06;;;21.67;25.58
44103;BME280;29769;42.178;24.742;2023-03-14T08:02:57;99895.47;;;22.10;25.02
44103;BME280;29769;42.178;24.742;2023-03-14T08:05:42;99890.16;;;22.96;23.68
44103;BME280;29769;42.178;24.742;2023-03-14T08:08:27;99886.28;;;23.43;23.48
44103;BME280;29769;42.178;24.742;2023-03-14T08:11:12;99886.81;;;23.62;23.25
44103;BME280;29769;42.178;24.742;2023-03-14T08:13:56;99879.63;;;23.08;23.03
44103;BME280;29769;42.178;24.742;2023-03-14T08:16:41;99885.75;;;22.81;23.73
44103;BME280;29769;42.178;24.742;2023-03-14T08:19:26;99885.38;;;23.16;23.58
44103;BME280;29769;42.178;24.742;2023-03-14T08:22:12;99881.19;;;24.06;22.46
44103;BME280;29769;42.178;24.742;2023-03-14T08:24:57;99883.75;;;23.81;22.62
44103;BME280;29769;42.178;24.742;2023-03-14T08:27:43;99863.78;;;23.17;22.94
44103;BME280;29769;42.178;24.742;2023-03-14T08:30:28;99881.78;;;22.14;23.49
44103;BME280;29769;42.178;24.742;2023-03-14T08:33:13;99855.97;;;21.68;24.27
44103;BME280;29769;42.178;24.742;2023-03-14T08:35:59;99871.50;;;22.37;23.66
44103;BME280;29769;42.178;24.742;2023-03-14T08:38:45;99864.84;;;23.70;22.87
44103;BME280;29769;42.178;24.742;2023-03-14T08:41:30;99860.19;;;24.38;22.23
44103;BME280;29769;42.178;24.742;2023-03-14T08:44:14;99855.63;;;25.14;21.62
44103;BME280;29769;42.178;24.742;2023-03-14T08:46:59;99855.16;;;25.93;20.56
44103;BME280;29769;42.178;24.742;2023-03-14T08:49:44;99846.31;;;26.83;19.63
44103;BME280;29769;42.178;24.742;2023-03-14T08:52:30;99833.84;;;26.25;20.64
44103;BME280;29769;42.178;24.742;2023-03-14T08:55:16;99826.81;;;26.91;19.88
44103;BME280;29769;42.178;24.742;2023-03-14T08:58:01;99830.53;;;28.19;18.93
44103;BME280;29769;42.178;24.742;2023-03-14T09:00:45;99814.06;;;27.90;18.85
44103;BME280;29769;42.178;24.742;2023-03-14T09:03:30;99799.72;;;27.35;19.10
44103;BME280;29769;42.178;24.742;2023-03-14T09:06:15;99801.66;;;28.19;18.42
44103;BME280;29769;42.178;24.742;2023-03-14T09:09:02;99800.03;;;27.96;18.03
44103;BME280;29769;42.178;24.742;2023-03-14T09:11:47;99794.25;;;27.69;18.54
44103;BME280;29769;42.178;24.742;2023-03-14T09:14:32;99790.91;;;28.29;18.38
44103;BME280;29769;42.178;24.742;2023-03-14T09:17:17;99785.47;;;28.80;18.10
44103;BME280;29769;42.178;24.742;2023-03-14T09:20:03;99766.56;;;29.30;17.15
44103;BME280;29769;42.178;24.742;2023-03-14T09:22:51;99777.66;;;28.87;17.28
44103;BME280;29769;42.178;24.742;2023-03-14T09:25:36;99770.53;;;28.86;17.87
44103;BME280;29769;42.178;24.742;2023-03-14T09:28:21;99758.44;;;29.87;17.47
44103;BME280;29769;42.178;24.742;2023-03-14T09:31:07;99747.88;;;29.46;17.33
44103;BME280;29769;42.178;24.742;2023-03-14T09:33:52;99742.16;;;29.58;17.42
44103;BME280;29769;42.178;24.742;2023-03-14T09:36:37;99737.63;;;29.88;17.26
44103;BME280;29769;42.178;24.742;2023-03-14T09:39:24;99733.16;;;29.48;17.22
44103;BME280;29769;42.178;24.742;2023-03-14T09:42:18;99737.72;;;29.77;17.40
44103;BME280;29769;42.178;24.742;2023-03-14T09:45:14;99721.16;;;30.09;17.21
44103;BME280;29769;42.178;24.742;2023-03-14T09:48:02;99709.22;;;30.75;16.89
44103;BME280;29769;42.178;24.742;2023-03-14T09:50:50;99729.75;;;31.15;16.86
44103;BME280;29769;42.178;24.742;2023-03-14T09:53:40;99727.66;;;30.72;16.89
44103;BME280;29769;42.178;24.742;2023-03-14T09:56:27;99722.03;;;30.56;16.41
44103;BME280;29769;42.178;24.742;2023-03-14T09:59:16;99723.78;;;29.33;17.33
44103;BME280;29769;42.178;24.742;2023-03-14T10:02:20;99720.34;;;28.42;18.03
44103;BME280;29769;42.178;24.742;2023-03-14T10:05:14;99715.00;;;28.61;18.13
44103;BME280;29769;42.178;24.742;2023-03-14T10:07:59;99712.91;;;30.00;16.94
44103;BME280;29769;42.178;24.742;2023-03-14T10:10:44;99690.63;;;29.87;16.83
44103;BME280;29769;42.178;24.742;2023-03-14T10:13:29;99692.19;;;30.56;16.77
44103;BME280;29769;42.178;24.742;2023-03-14T10:16:13;99686.59;;;30.20;16.72
44103;BME280;29769;42.178;24.742;2023-03-14T10:19:15;99674.00;;;30.83;16.31
44103;BME280;29769;42.178;24.742;2023-03-14T10:22:02;99648.59;;;31.55;16.12
44103;BME280;29769;42.178;24.742;2023-03-14T10:25:01;99659.06;;;31.94;15.77
44103;BME280;29769;42.178;24.742;2023-03-14T10:27:47;99652.28;;;32.99;14.49
44103;BME280;29769;42.178;24.742;2023-03-14T10:30:41;99653.09;;;31.64;15.19
44103;BME280;29769;42.178;24.742;2023-03-14T10:33:33;99655.09;;;30.37;16.08
44103;BME280;29769;42.178;24.742;2023-03-14T10:36:23;99645.66;;;30.68;16.03
44103;BME280;29769;42.178;24.742;2023-03-14T10:42:21;99629.34;;;31.31;15.71
44103;BME280;29769;42.178;24.742;2023-03-14T10:45:25;99609.69;;;32.48;15.08
44103;BME280;29769;42.178;24.742;2023-03-14T10:48:23;99604.47;;;33.37;14.76
44103;BME280;29769;42.178;24.742;2023-03-14T10:54:13;99594.72;;;33.02;14.20
44103;BME280;29769;42.178;24.742;2023-03-14T10:57:00;99593.53;;;33.53;14.02
44103;BME280;29769;42.178;24.742;2023-03-14T10:59:45;99588.78;;;33.56;14.19
44103;BME280;29769;42.178;24.742;2023-03-14T11:05:41;99567.09;;;32.23;14.10
44103;BME280;29769;42.178;24.742;2023-03-14T11:08:55;99558.50;;;28.16;16.40
44103;BME280;29769;42.178;24.742;2023-03-14T11:11:47;99562.88;;;27.36;17.32
44103;BME280;29769;42.178;24.742;2023-03-14T11:14:37;99540.88;;;26.13;18.21
44103;BME280;29769;42.178;24.742;2023-03-14T11:17:31;99534.44;;;27.83;17.32
44103;BME280;29769;42.178;24.742;2023-03-14T11:27:00;99500.91;;;27.95;17.53
44103;BME280;29769;42.178;24.742;2023-03-14T11:29:59;99486.81;;;28.60;17.25
44103;BME280;29769;42.178;24.742;2023-03-14T11:33:08;99481.41;;;26.69;18.52
44103;BME280;29769;42.178;24.742;2023-03-14T11:36:02;99482.75;;;26.42;18.59
44103;BME280;29769;42.178;24.742;2023-03-14T11:38:50;99480.16;;;25.98;19.18
44103;BME280;29769;42.178;24.742;2023-03-14T11:41:39;99472.34;;;25.39;19.41
44103;BME280;29769;42.178;24.742;2023-03-14T11:44:30;99468.00;;;25.03;19.80
44103;BME280;29769;42.178;24.742;2023-03-14T11:47:28;99446.75;;;25.67;19.43
44103;BME280;29769;42.178;24.742;2023-03-14T11:50:26;99444.09;;;25.99;19.23
44103;BME280;29769;42.178;24.742;2023-03-14T11:56:26;99414.47;;;26.63;18.39
44103;BME280;29769;42.178;24.742;2023-03-14T11:59:18;99404.78;;;27.53;17.68
44103;BME280;29769;42.178;24.742;2023-03-14T12:02:10;99399.63;;;27.19;18.62
44103;BME280;29769;42.178;24.742;2023-03-14T12:10:59;99377.88;;;26.17;19.08
44103;BME280;29769;42.178;24.742;2023-03-14T12:13:48;99375.78;;;25.23;20.13
44103;BME280;29769;42.178;24.742;2023-03-14T12:16:38;99361.94;;;25.17;20.39
44103;BME280;29769;42.178;24.742;2023-03-14T12:25:05;99345.94;;;25.81;19.87
44103;BME280;29769;42.178;24.742;2023-03-14T12:30:41;99343.13;;;26.03;20.42
44103;BME280;29769;42.178;24.742;2023-03-14T12:33:28;99326.69;;;26.79;19.65
44103;BME280;29769;42.178;24.742;2023-03-14T12:42:58;99329.84;;;24.58;21.93
44103;BME280;29769;42.178;24.742;2023-03-14T12:51:41;99304.75;;;28.68;18.51
44103;BME280;29769;42.178;24.742;2023-03-14T12:54:31;99303.88;;;28.77;18.54
44103;BME280;29769;42.178;24.742;2023-03-14T13:00:22;99295.84;;;27.12;19.76
44103;BME280;29769;42.178;24.742;2023-03-14T13:03:21;99292.19;;;26.62;20.11
44103;BME280;29769;42.178;24.742;2023-03-14T13:06:10;99282.97;;;26.34;20.47
44103;BME280;29769;42.178;24.742;2023-03-14T13:08:55;99289.44;;;27.04;20.13
44103;BME280;29769;42.178;24.742;2023-03-14T13:11:42;99282.94;;;25.93;20.90
44103;BME280;29769;42.178;24.742;2023-03-14T13:14:28;99275.13;;;26.52;20.45
44103;BME280;29769;42.178;24.742;2023-03-14T13:17:16;99274.16;;;27.33;19.83
44103;BME280;29769;42.178;24.742;2023-03-14T13:20:21;99264.13;;;27.64;19.16
44103;BME280;29769;42.178;24.742;2023-03-14T13:23:20;99260.66;;;27.23;19.60
44103;BME280;29769;42.178;24.742;2023-03-14T13:26:11;99248.78;;;23.83;22.01
44103;BME280;29769;42.178;24.742;2023-03-14T13:28:58;99259.06;;;24.69;21.68
44103;BME280;29769;42.178;24.742;2023-03-14T13:31:45;99249.44;;;24.89;21.27
44103;BME280;29769;42.178;24.742;2023-03-14T13:34:32;99242.94;;;25.02;21.09
44103;BME280;29769;42.178;24.742;2023-03-14T13:37:22;99249.41;;;24.33;21.76
44103;BME280;29769;42.178;24.742;2023-03-14T13:40:46;99235.22;;;24.53;21.98
44103;BME280;29769;42.178;24.742;2023-03-14T13:43:34;99220.78;;;24.76;22.02
44103;BME280;29769;42.178;24.742;2023-03-14T13:46:23;99210.88;;;25.42;21.21
44103;BME280;29769;42.178;24.742;2023-03-14T13:49:13;99211.09;;;25.82;20.78
44103;BME280;29769;42.178;24.742;2023-03-14T13:52:03;99200.03;;;26.06;20.50
44103;BME280;29769;42.178;24.742;2023-03-14T13:54:53;99181.66;;;25.70;20.69
44103;BME280;29769;42.178;24.742;2023-03-14T13:57:52;99187.75;;;24.86;21.51
44103;BME280;29769;42.178;24.742;2023-03-14T14:00:41;99180.44;;;24.99;21.80
44103;BME280;29769;42.178;24.742;2023-03-14T14:03:26;99182.19;;;24.22;22.23
44103;BME280;29769;42.178;24.742;2023-03-14T14:09:22;99162.63;;;23.04;23.56
44103;BME280;29769;42.178;24.742;2023-03-14T14:15:09;99146.47;;;24.75;22.04
44103;BME280;29769;42.178;24.742;2023-03-14T14:17:58;99142.97;;;25.71;21.47
44103;BME280;29769;42.178;24.742;2023-03-14T14:20:46;99118.63;;;23.65;22.85
44103;BME280;29769;42.178;24.742;2023-03-14T14:23:31;99150.31;;;22.65;24.17
44103;BME280;29769;42.178;24.742;2023-03-14T14:26:18;99146.63;;;23.26;23.28
44103;BME280;29769;42.178;24.742;2023-03-14T14:29:05;99131.94;;;24.00;22.91
44103;BME280;29769;42.178;24.742;2023-03-14T14:32:00;99123.19;;;24.31;21.91
44103;BME280;29769;42.178;24.742;2023-03-14T14:37:44;99118.31;;;23.46;22.28
44103;BME280;29769;42.178;24.742;2023-03-14T14:40:30;99117.75;;;23.65;22.49
44103;BME280;29769;42.178;24.742;2023-03-14T14:43:21;99113.13;;;22.97;23.44
44103;BME280;29769;42.178;24.742;2023-03-14T14:46:08;99113.13;;;20.69;25.59
44103;BME280;29769;42.178;24.742;2023-03-14T14:48:56;99111.66;;;20.23;26.08
44103;BME280;29769;42.178;24.742;2023-03-14T14:51:45;99109.19;;;19.49;27.35
44103;BME280;29769;42.178;24.742;2023-03-14T14:54:35;99106.78;;;19.44;27.67
44103;BME280;29769;42.178;24.742;2023-03-14T14:57:32;99098.28;;;19.08;27.92
44103;BME280;29769;42.178;24.742;2023-03-14T15:00:26;99089.28;;;19.69;27.36
44103;BME280;29769;42.178;24.742;2023-03-14T15:03:13;99088.81;;;19.76;27.05
44103;BME280;29769;42.178;24.742;2023-03-14T15:05:59;99091.97;;;19.83;27.13
44103;BME280;29769;42.178;24.742;2023-03-14T15:08:47;99087.88;;;19.91;26.79
44103;BME280;29769;42.178;24.742;2023-03-14T15:11:32;99084.44;;;19.89;26.78
44103;BME280;29769;42.178;24.742;2023-03-14T15:14:17;99078.53;;;19.84;26.89
44103;BME280;29769;42.178;24.742;2023-03-14T15:17:02;99085.09;;;19.50;26.94
44103;BME280;29769;42.178;24.742;2023-03-14T15:19:48;99079.81;;;19.35;27.14
44103;BME280;29769;42.178;24.742;2023-03-14T15:22:33;99074.81;;;19.15;26.88
44103;BME280;29769;42.178;24.742;2023-03-14T15:25:17;99068.91;;;18.80;27.65
44103;BME280;29769;42.178;24.742;2023-03-14T15:28:02;99063.69;;;18.31;27.91
44103;BME280;29769;42.178;24.742;2023-03-14T15:30:49;99067.03;;;18.19;28.35
44103;BME280;29769;42.178;24.742;2023-03-14T15:33:34;99060.94;;;18.17;28.15
44103;BME280;29769;42.178;24.742;2023-03-14T15:39:10;99039.31;;;17.92;28.66
44103;BME280;29769;42.178;24.742;2023-03-14T15:41:55;99052.88;;;17.87;28.76
44103;BME280;29769;42.178;24.742;2023-03-14T15:44:40;99051.38;;;17.66;28.86
44103;BME280;29769;42.178;24.742;2023-03-14T15:47:25;99045.38;;;17.45;29.26
44103;BME280;29769;42.178;24.742;2023-03-14T15:50:12;99042.44;;;17.34;29.37